Clermont-Ferrand Auvergne Airport

LFLC · Auvergne-Rhône-Alpes, Frankreich

2. Oktober 2022

Uhrzeit Code Wetter Temp. Sichtweite Wolkendecke Wind METAR/SPECI
01:30
V
16 °C 10 km+ - Var Var 2 kt METAR LFLC 012330Z AUTO VRB02KT 9999 SCT027 SCT032 16/13 Q1024 NOSIG
01:00
V
16 °C 10 km+ - 140° 140° 3 kt METAR LFLC 012300Z AUTO 14003KT 100V170 9999 FEW031 16/14 Q1024 NOSIG
00:30
V
18 °C 10 km+ - 180° 180° 4 kt METAR LFLC 012230Z AUTO 18004KT 130V200 9999 FEW032 SCT230 18/15 Q1024 NOSIG
00:00
V
19 °C 10 km+ - 170° 170° 4 kt METAR LFLC 012200Z AUTO 17004KT 130V220 9999 FEW029 19/15 Q1024 NOSIG

1. Oktober 2022

Uhrzeit Code Wetter Temp. Sichtweite Wolkendecke Wind METAR/SPECI
23:30
V
19 °C 10 km+ - 190° 190° 4 kt METAR LFLC 012130Z AUTO 19004KT 150V230 9999 FEW030 19/15 Q1023 NOSIG
23:00
V
19 °C 10 km+ - Var Var 2 kt METAR LFLC 012100Z AUTO VRB02KT 9999 FEW032 19/15 Q1023 NOSIG
22:30
V
19 °C 10 km+ - Var Var 3 kt METAR LFLC 012030Z AUTO VRB03KT CAVOK 19/15 Q1023 NOSIG
22:00
V
18 °C 10 km+ - 240° 240° 7 kt METAR LFLC 012000Z AUTO 24007KT 9999 FEW007 18/15 Q1023 NOSIG
21:30
V
19 °C 10 km+ - 270° 270° 5 kt METAR LFLC 011930Z AUTO 27005KT 240V310 9999 FEW025 SCT096 19/15 Q1023 NOSIG
21:00
V
19 °C 10 km+ - 260° 260° 9 kt METAR LFLC 011900Z AUTO 26009KT 9999 FEW010 SCT072 19/14 Q1022 NOSIG
20:30
V
19 °C 10 km+ - 250° 250° 8 kt METAR LFLC 011830Z AUTO 25008KT 9999 FEW052 SCT094 19/14 Q1022 NOSIG
20:00
V
19 °C 10 km+ - 260° 260° 13 kt METAR LFLC 011800Z AUTO 26013KT 9999 FEW031 SCT092 19/14 Q1022 NOSIG
19:30
V
19 °C 10 km+ 8.400 ft 270° 270° 10 kt METAR LFLC 011730Z AUTO 27010KT 230V290 9999 FEW037 BKN084 19/14 Q1021 NOSIG
19:00
V
20 °C 10 km+ - 260° 260° 13 kt METAR LFLC 011700Z AUTO 26013KT CAVOK 20/14 Q1021 TEMPO 26020G30KT
18:30
V
20 °C 10 km+ - 260° 260° 16 kt METAR LFLC 011630Z AUTO 26016KT CAVOK 20/14 Q1020 TEMPO 26020G30KT
18:00
V
21 °C 10 km+ - 270° 270° 14 kt METAR LFLC 011600Z AUTO 27014KT CAVOK 21/14 Q1020 TEMPO 26020G30KT
17:30
V
21 °C 10 km+ - 260° 260° 18 kt METAR LFLC 011530Z AUTO 26018KT CAVOK 21/13 Q1020 TEMPO 26020G30KT
17:00
V
21 °C 10 km+ - 260° 260° 20 kt METAR LFLC 011500Z AUTO 26020KT CAVOK 21/14 Q1020 BECMG 26010KT
16:30
V
21 °C 10 km+ - 260° 260° 17 kt METAR LFLC 011430Z AUTO 26017KT CAVOK 21/13 Q1020 NOSIG
16:00
V
21 °C 10 km+ 13.000 ft 260° 260° 16 kt METAR LFLC 011400Z AUTO 26016KT 9999 FEW033 BKN130 21/14 Q1019 NOSIG
15:30
V
19 °C 10 km+ - 250° 250° 16 - 27 kt METAR LFLC 011330Z AUTO 25016G27KT CAVOK 19/13 Q1019 BECMG 26010KT
15:00
V
19 °C 10 km+ 14.000 ft 260° 260° 15 kt METAR LFLC 011300Z AUTO 26015KT 230V300 9999 FEW033 BKN140 19/12 Q1019 NOSIG
14:30
V
19 °C 10 km+ 12.000 ft 260° 260° 13 - 23 kt METAR LFLC 011230Z AUTO 26013G23KT 220V300 9999 FEW035 SCT084 BKN120 19/12 Q1019 NOSIG
14:00
V
19 °C 10 km+ 8.400 ft 260° 260° 10 kt METAR LFLC 011200Z AUTO 26010KT 230V290 9999 FEW034 OVC084 19/12 Q1019 NOSIG
13:30
V
19 °C 10 km+ - 240° 240° 12 - 25 kt METAR LFLC 011130Z AUTO 24012G25KT 200V290 CAVOK 19/12 Q1019 NOSIG
13:00
V
19 °C 10 km+ 8.800 ft 240° 240° 10 kt METAR LFLC 011100Z AUTO 24010KT 210V310 9999 FEW035 BKN088 BKN100 19/12 Q1018 TEMPO 26015G30KT
12:30
V
19 °C 10 km+ 5.600 ft 230° 230° 10 kt METAR LFLC 011030Z AUTO 23010KT 180V260 9999 FEW035 BKN056 BKN078 19/12 Q1018 TEMPO 26015G30KT
12:00
V
19 °C 10 km+ 5.800 ft 230° 230° 14 kt METAR LFLC 011000Z AUTO 23014KT 200V260 9999 SCT036 BKN058 BKN068 19/11 Q1018 TEMPO 26015G30KT
11:30
V
17 °C 10 km+ 8.200 ft Var Var 6 - 19 kt METAR LFLC 010930Z AUTO VRB06G19KT 9999 FEW037 SCT056 OVC082 17/12 Q1018 TEMPO 26015G30KT
11:00
V
16 °C 10 km+ 5.800 ft 200° 200° 11 kt METAR LFLC 010900Z AUTO 20011KT 160V230 9999 FEW036 SCT048 BKN058 16/11 Q1018 TEMPO 26015G30KT
10:30
V
13 °C 10 km+ 4.800 ft 200° 200° 12 kt METAR LFLC 010830Z AUTO 20012KT 9999 SCT034 BKN048 BKN058 13/09 Q1018 TEMPO 26015G30KT
10:00
V
13 °C 10 km+ 6.000 ft 180° 180° 11 kt METAR LFLC 010800Z AUTO 18011KT 9999 SCT037 SCT048 BKN060 13/09 Q1017 TEMPO 25010KT
09:30
V
12 °C 10 km+ 6.200 ft 160° 160° 12 kt METAR LFLC 010730Z AUTO 16012KT 130V190 9999 SCT037 SCT049 OVC062 12/09 Q1017 TEMPO 25010KT
09:00
V
11 °C 10 km+ 4.900 ft 170° 170° 10 kt METAR LFLC 010700Z AUTO 17010KT 9999 FEW038 BKN049 BKN068 11/08 Q1017 NOSIG
08:30
V
10 °C 10 km+ 5.400 ft 180° 180° 10 kt METAR LFLC 010630Z AUTO 18010KT 150V210 9999 FEW038 BKN054 BKN068 10/08 Q1017 NOSIG
08:00
V
10 °C 10 km+ 5.600 ft 190° 190° 10 kt METAR LFLC 010600Z AUTO 19010KT 160V220 9999 FEW036 BKN056 BKN072 10/08 Q1017 NOSIG
07:30
V
10 °C 10 km+ 5.600 ft 160° 160° 13 kt METAR LFLC 010530Z AUTO 16013KT 9999 FEW035 BKN056 BKN070 10/08 Q1017 NOSIG
07:00
V
9 °C 10 km+ 5.800 ft 150° 150° 15 kt METAR LFLC 010500Z AUTO 15015KT 9999 FEW035/// BKN058/// OVC070/// ///TCU 09/07 Q1017 TEMPO BKN040 OVC060
06:30
V
9 °C 10 km+ 6.400 ft 160° 160° 13 kt METAR LFLC 010430Z AUTO 16013KT 9999 FEW034 OVC064 09/07 Q1017 NOSIG
06:00
V
9 °C 10 km+ 7.200 ft 160° 160° 12 kt METAR LFLC 010400Z AUTO 16012KT 9999 FEW037 BKN072 OVC082 09/07 Q1017 NOSIG
05:30
V
8 °C 10 km+ 8.000 ft 160° 160° 13 kt METAR LFLC 010330Z AUTO 16013KT 9999 FEW038 BKN080 OVC100 08/07 Q1017 NOSIG
05:00
V
9 °C 10 km+ 9.600 ft 150° 150° 9 kt METAR LFLC 010300Z AUTO 15009KT 9999 -RA FEW041/// SCT070/// OVC096/// //////TCU 09/07 Q1017 TEMPO BKN040 OVC060
04:30
V
9 °C 10 km+ 8.600 ft 160° 160° 11 kt METAR LFLC 010230Z AUTO 16011KT 9999 -RA FEW047/// OVC086/// //////CB 09/06 Q1017 TEMPO BKN040 OVC060
04:00
V
9 °C 10 km+ 9.800 ft 170° 170° 12 kt METAR LFLC 010200Z AUTO 17012KT 9999 FEW045/// OVC098/// //////CB 09/06 Q1017 TEMPO BKN040 OVC060
03:30
V
9 °C 10 km+ - 170° 170° 13 kt METAR LFLC 010130Z AUTO 17013KT CAVOK 09/06 Q1017 NOSIG
03:00
V
9 °C 10 km+ - 180° 180° 11 kt METAR LFLC 010100Z AUTO 18011KT 150V210 CAVOK 09/06 Q1017 NOSIG
02:30
V
9 °C 10 km+ - 160° 160° 11 kt METAR LFLC 010030Z AUTO 16011KT CAVOK 09/06 Q1017 NOSIG
02:00
V
9 °C 10 km+ - 180° 180° 11 kt METAR LFLC 010000Z AUTO 18011KT CAVOK 09/06 Q1017 NOSIG
01:30
V
9 °C 10 km+ - 180° 180° 12 kt METAR LFLC 302330Z AUTO 18012KT CAVOK 09/06 Q1017 NOSIG
01:00
V
8 °C 10 km+ - 190° 190° 3 kt METAR LFLC 302300Z AUTO 19003KT 140V250 CAVOK 08/06 Q1017 NOSIG
00:30
V
8 °C 10 km+ - Var Var 2 kt METAR LFLC 302230Z AUTO VRB02KT CAVOK 08/06 Q1017 NOSIG
00:00
V
8 °C 10 km+ - 270° 270° 3 kt METAR LFLC 302200Z AUTO 27003KT CAVOK 08/06 Q1017 BECMG 17010KT

30. September 2022

Uhrzeit Code Wetter Temp. Sichtweite Wolkendecke Wind METAR/SPECI
23:30
V
8 °C 10 km+ - Var Var 3 kt METAR LFLC 302130Z AUTO VRB03KT 9999 FEW042 08/06 Q1017 NOSIG
23:00
V
8 °C 10 km+ - Var Var 3 kt METAR LFLC 302100Z AUTO VRB03KT CAVOK 08/06 Q1017 NOSIG
22:30
V
8 °C 10 km+ - Var Var 1 kt METAR LFLC 302030Z AUTO VRB01KT 9999 FEW045 08/06 Q1017 NOSIG
22:00
V
8 °C 10 km+ 4.500 ft Var Var 2 kt METAR LFLC 302000Z AUTO VRB02KT 9999 BKN045 08/06 Q1017 NOSIG
21:30
V
9 °C 10 km+ 4.800 ft 260° 260° 4 kt METAR LFLC 301930Z AUTO 26004KT 9999 BKN048 BKN058 09/06 Q1016 BECMG 17010KT
21:00
V
9 °C 10 km+ - 250° 250° 6 kt METAR LFLC 301900Z AUTO 25006KT CAVOK 09/06 Q1016 BECMG 17010KT
20:30
V
9 °C 10 km+ - 160° 160° 4 kt METAR LFLC 301830Z AUTO 16004KT CAVOK 09/06 Q1015 NOSIG
20:00
V
11 °C 10 km+ - 080° 080° 4 kt METAR LFLC 301800Z AUTO 08004KT CAVOK 11/05 Q1015 BECMG 17010KT
19:30
V
12 °C 10 km+ - 060° 060° 3 kt METAR LFLC 301730Z AUTO 06003KT CAVOK 12/06 Q1015 BECMG 17010KT
19:00
V
14 °C 10 km+ - Var Var 3 kt METAR LFLC 301700Z AUTO VRB03KT 9999 FEW054 14/06 Q1015 NOSIG
18:30
V
14 °C 10 km+ 5.600 ft 050° 050° 5 kt METAR LFLC 301630Z AUTO 05005KT 9999 FEW047 BKN056 14/07 Q1014 BECMG 17010KT
18:00
V
15 °C 10 km+ - 010° 010° 3 kt METAR LFLC 301600Z AUTO 01003KT 330V050 CAVOK 15/06 Q1014 NOSIG
17:30
V
15 °C 10 km+ - 030° 030° 4 kt METAR LFLC 301530Z AUTO 03004KT 350V070 9999 FEW044 15/06 Q1014 NOSIG
17:00
V
16 °C 10 km+ - 030° 030° 6 kt METAR LFLC 301500Z AUTO 03006KT 340V070 9999 FEW046 16/07 Q1014 NOSIG
16:30
V
16 °C 10 km+ - 040° 040° 4 kt METAR LFLC 301430Z AUTO 04004KT 360V110 9999 FEW043 SCT058 16/06 Q1014 NOSIG
16:00
V
15 °C 10 km+ - Var Var 3 kt METAR LFLC 301400Z AUTO VRB03KT 9999 FEW038 SCT050 15/07 Q1014 NOSIG
15:30
V
16 °C 10 km+ 6.000 ft 350° 350° 3 kt METAR LFLC 301330Z AUTO 35003KT 310V050 9999 SCT037 BKN060 16/07 Q1014 NOSIG
15:00
V
15 °C 10 km+ 4.500 ft 010° 010° 5 kt METAR LFLC 301300Z AUTO 01005KT 340V060 9999 SCT038 BKN045 BKN060 15/07 Q1014 NOSIG
14:30
V
15 °C 10 km+ 3.400 ft 030° 030° 7 kt METAR LFLC 301230Z AUTO 03007KT 340V090 9999 BKN034 BKN043 15/06 Q1014 NOSIG
14:00
V
14 °C 10 km+ 4.500 ft 030° 030° 7 kt METAR LFLC 301200Z AUTO 03007KT 340V060 9999 FEW030 SCT035 BKN045 14/07 Q1014 NOSIG
13:30
M
14 °C 10 km+ 2.600 ft 030° 030° 6 kt METAR LFLC 301130Z AUTO 03006KT 350V080 9999 BKN026 BKN033 BKN047 14/07 Q1014 NOSIG
13:00
M
12 °C 10 km+ 2.200 ft 030° 030° 4 kt METAR LFLC 301100Z AUTO 03004KT 340V100 9999 BKN022 BKN037 BKN044 12/08 Q1014 NOSIG
12:30
M
13 °C 10 km+ 2.600 ft 050° 050° 4 kt METAR LFLC 301030Z AUTO 05004KT 350V080 9999 SCT016 SCT021 BKN026 13/09 Q1013 NOSIG
12:00
M
13 °C 10 km+ 2.300 ft 040° 040° 5 kt METAR LFLC 301000Z AUTO 04005KT 340V090 9999 SCT016 BKN023 BKN034 13/09 Q1013 NOSIG
11:30
M
13 °C 10 km+ 2.900 ft 040° 040° 7 kt METAR LFLC 300930Z AUTO 04007KT 350V080 9999 FEW017 SCT022 BKN029 13/08 Q1013 NOSIG
11:00
M
12 °C 10 km+ 2.500 ft 030° 030° 6 kt METAR LFLC 300900Z AUTO 03006KT 320V060 9999 SCT018 BKN025 BKN032 12/07 Q1013 NOSIG
10:30
V
12 °C 10 km+ - 350° 350° 4 kt METAR LFLC 300830Z AUTO 35004KT 320V030 CAVOK 12/08 Q1012 NOSIG
10:00
I
11 °C 1,7 km - 020° 020° 3 kt METAR LFLC 300800Z AUTO 02003KT 340V050 9999 1700 FEW018 SCT030 11/08 Q1012 TEMPO 0800 FG OVC002
09:30
M
10 °C 10 km+ 1.900 ft 020° 020° 3 kt METAR LFLC 300730Z AUTO 02003KT 350V050 9999 BKN019 OVC037 10/07 Q1012 TEMPO 0800 FG OVC002
09:00
M
9 °C 10 km+ 1.900 ft 360° 360° 3 kt METAR LFLC 300700Z AUTO 36003KT 330V030 9999 BKN019 09/08 Q1011 TEMPO 0800 FG OVC002
08:30
M
9 °C 10 km+ 1.600 ft 360° 360° 3 kt METAR LFLC 300630Z AUTO 36003KT 330V030 9999 OVC016 09/07 Q1011 TEMPO 0800 FG OVC002
08:00
M
9 °C 10 km+ 1.500 ft Var Var 1 kt METAR LFLC 300600Z AUTO VRB01KT 9999 OVC015 09/07 Q1010 TEMPO 0800 FG OVC002
07:30
M
9 °C 10 km+ 1.600 ft 360° 360° 3 kt METAR LFLC 300530Z AUTO 36003KT 9999 OVC016 09/08 Q1010 TEMPO 0800 FG OVC002
07:00
M
8 °C 10 km+ 1.500 ft Var 000° 0 kt METAR LFLC 300500Z AUTO 00000KT 9999 OVC015 08/08 Q1010 TEMPO 0800 FG OVC002
06:30
M
8 °C 10 km+ 1.600 ft 040° 040° 2 kt METAR LFLC 300430Z AUTO 04002KT 9999 BKN016 OVC021 08/07 Q1009 TEMPO 0800 FG OVC002
06:00
M
8 °C 10 km+ 1.500 ft Var Var 2 kt METAR LFLC 300400Z AUTO VRB02KT 9999 OVC015 08/07 Q1009 TEMPO 0800 FG OVC002
05:30
M
8 °C 10 km+ 1.700 ft Var 000° 0 kt METAR LFLC 300330Z AUTO 00000KT 9999 BKN017 OVC056 08/07 Q1009 TEMPO 0800 FG OVC002
05:00
M
8 °C 10 km+ 1.800 ft Var Var 2 kt METAR LFLC 300300Z AUTO VRB02KT 9999 BKN018 BKN023 OVC028 08/07 Q1009 TEMPO 0800 FG OVC002
04:30
M
8 °C 10 km+ 2.000 ft 280° 280° 3 kt METAR LFLC 300230Z AUTO 28003KT 9999 BKN020 BKN030 BKN046 08/07 Q1009 TEMPO 0800 FG OVC002
04:00
M
8 °C 10 km+ 2.100 ft Var 000° 0 kt METAR LFLC 300200Z AUTO 00000KT 9999 BKN021 BKN028 OVC038 08/07 Q1008 BECMG BKN013
03:30
M
7 °C 10 km+ 2.200 ft 080° 080° 4 kt METAR LFLC 300130Z AUTO 08004KT 9999 BKN022 BKN034 BKN040 07/06 Q1008 BECMG BKN013
03:00
V
6 °C 10 km+ 22.000 ft 070° 070° 5 kt METAR LFLC 300100Z AUTO 07005KT 9999 FEW029 BKN220 06/05 Q1008 BECMG BKN013
02:30
V
6 °C 10 km+ 21.000 ft 120° 120° 2 kt METAR LFLC 300030Z AUTO 12002KT 9999 FEW041 OVC210 06/06 Q1008 BECMG BKN013
02:00
V
7 °C 10 km+ 21.000 ft Var Var 3 kt METAR LFLC 300000Z AUTO VRB03KT 9999 FEW022 BKN210 OVC230 07/05 Q1008 BECMG BKN013
01:30
V
8 °C 10 km+ - 330° 330° 2 kt METAR LFLC 292330Z AUTO 33002KT CAVOK 08/06 Q1007 NOSIG
01:00
V
8 °C 10 km+ 22.000 ft Var 000° 0 kt METAR LFLC 292300Z AUTO 00000KT 9999 FEW023 BKN220 08/07 Q1007 NOSIG
00:30
V
9 °C 10 km+ 21.000 ft 110° 110° 1 kt METAR LFLC 292230Z AUTO 11001KT 9999 FEW056 OVC210 09/08 Q1007 NOSIG
00:00
V
10 °C 10 km+ 5.800 ft Var 000° 0 kt METAR LFLC 292200Z AUTO 00000KT 9999 BKN058 BKN068 OVC220 10/08 Q1007 NOSIG

29. September 2022

Uhrzeit Code Wetter Temp. Sichtweite Wolkendecke Wind METAR/SPECI
23:30
V
10 °C 10 km+ 5.200 ft Var 000° 0 kt METAR LFLC 292130Z AUTO 00000KT 9999 FEW044 BKN052 BKN064 10/08 Q1007 NOSIG
23:00
V
10 °C 10 km+ 5.000 ft 300° 300° 3 kt METAR LFLC 292100Z AUTO 30003KT 9999 BKN050 OVC064 10/08 Q1007 TEMPO 3000 SHRA BKN030TCU
22:30
V
10 °C 10 km+ 5.600 ft 310° 310° 3 kt METAR LFLC 292030Z AUTO 31003KT 9999 SCT041 BKN056 BKN068 10/07 Q1006 TEMPO 3000 SHRA BKN030TCU
22:00
V
10 °C 10 km+ 5.000 ft 340° 340° 3 kt METAR LFLC 292000Z AUTO 34003KT 9999 SCT043 BKN050 BKN070 10/07 Q1006 TEMPO 3000 SHRA BKN030TCU
21:30
V
11 °C 10 km+ 4.600 ft Var Var 2 kt METAR LFLC 291930Z AUTO VRB02KT 9999 SCT039 OVC046 11/08 Q1006 TEMPO 3000 SHRA BKN030TCU
21:00
V
11 °C 10 km+ 4.400 ft 340° 340° 4 kt METAR LFLC 291900Z AUTO 34004KT 9999 FEW036 BKN044 BKN052 11/07 Q1005 TEMPO 3000 SHRA BKN030TCU
20:30
V
11 °C 10 km+ 20.000 ft 360° 360° 3 kt METAR LFLC 291830Z AUTO 36003KT 9999 FEW035 SCT042 OVC200 11/07 Q1005 TEMPO 3000 SHRA BKN030TCU
20:00
V
11 °C 10 km+ 20.000 ft Var Var 2 kt METAR LFLC 291800Z AUTO VRB02KT 9999 SCT036 SCT042 BKN200 11/07 Q1005 TEMPO 3000 SHRA BKN030TCU
19:30
V
11 °C 10 km+ 8.600 ft 020° 020° 3 kt METAR LFLC 291730Z AUTO 02003KT 9999 SCT038/// BKN086/// //////TCU 11/07 Q1004 TEMPO 3000 SHRA
19:00
V
13 °C 10 km+ - 030° 030° 5 kt METAR LFLC 291700Z AUTO 03005KT 350V050 9999 FEW039/// SCT070/// ///CB 13/06 Q1004 TEMPO 3000 SHRA
18:30
V
14 °C 10 km+ - 360° 360° 7 kt METAR LFLC 291630Z AUTO 36007KT 310V020 9999 FEW046 SCT072 14/06 Q1003 TEMPO 3000 SHRA BKN030TCU
18:00
V
15 °C 10 km+ 5.200 ft 030° 030° 7 kt METAR LFLC 291600Z AUTO 03007KT 9999 SCT044 BKN052 BKN064 15/06 Q1003 TEMPO 3000 SHRA BKN030TCU
17:30
V
14 °C 10 km+ 7.000 ft 050° 050° 8 kt METAR LFLC 291530Z AUTO 05008KT 020V090 9999 FEW049 SCT058 BKN070 14/07 Q1003 TEMPO 3000 SHRA BKN030TCU
17:00
V
15 °C 10 km+ 5.600 ft 360° 360° 7 kt METAR LFLC 291500Z AUTO 36007KT 330V030 9999 SCT046 BKN056 BKN070 15/06 Q1002 TEMPO 3000 SHRA BKN030TCU
Ältere Daten

Wir und Dritte verfolgen dein Internetverhalten auf unserer Website mit Cookies. Wenn du fortfährst, gehen wir davon aus, dass du mit unserer Cookie-Richtlinie einverstanden bist. Mehr erfahren